createdAt,value
2017-10-18T18:01:29.171Z,85.00
2017-10-18T18:04:03.100Z,85.00
2017-10-18T18:12:19.540Z,82.80
2017-10-18T18:14:48.768Z,82.40
2017-10-18T18:17:19.020Z,81.60
2017-10-18T18:19:46.553Z,81.50
2017-10-18T18:22:15.809Z,81.20
2017-10-18T18:27:23.615Z,80.60
2017-10-18T18:30:31.567Z,80.10
2017-10-18T18:33:00.363Z,80.00
2017-10-18T18:35:42.515Z,79.90
2017-10-18T18:38:10.122Z,80.10
2017-10-18T18:40:38.674Z,80.00
2017-10-18T18:43:06.207Z,80.40
2017-10-18T18:45:33.835Z,79.90
2017-10-18T18:48:03.219Z,79.90
2017-10-18T18:50:30.796Z,80.10
2017-10-18T18:52:59.171Z,80.00
2017-10-18T18:55:27.060Z,80.00
2017-10-18T18:57:54.634Z,79.80
2017-10-18T19:00:22.263Z,80.00
2017-10-18T19:02:51.660Z,80.10
2017-10-18T19:05:21.205Z,79.60
2017-10-18T19:07:48.830Z,79.50
2017-10-18T19:10:16.499Z,79.80
2017-10-18T19:12:44.804Z,80.30
2017-10-18T19:15:14.060Z,80.00
2017-10-18T19:17:41.587Z,80.00
2017-10-18T19:20:09.132Z,80.40
2017-10-18T19:22:36.863Z,80.60
2017-10-18T19:25:05.163Z,80.80
2017-10-18T19:27:32.704Z,80.80
2017-10-18T19:30:00.639Z,81.10
2017-10-18T19:32:29.223Z,81.20
2017-10-18T19:34:56.835Z,81.20
2017-10-18T19:37:26.475Z,81.50
2017-10-18T19:39:54.061Z,81.50
2017-10-18T19:42:21.657Z,81.70
2017-10-18T19:44:50.190Z,81.80
2017-10-18T19:47:17.819Z,82.00
2017-10-18T19:49:45.452Z,81.90
2017-10-18T19:52:23.757Z,82.00
2017-10-18T19:58:44.970Z,82.00
2017-10-18T20:01:12.712Z,82.10
2017-10-18T20:03:41.152Z,82.50
2017-10-18T20:06:08.784Z,81.90
2017-10-18T20:08:37.095Z,81.30
2017-10-18T20:11:04.633Z,81.30
2017-10-18T20:13:32.976Z,81.10
2017-10-18T20:16:00.552Z,81.00
2017-10-18T20:18:28.091Z,81.30
2017-10-18T20:20:55.660Z,82.20
2017-10-18T20:23:23.204Z,81.50
2017-10-18T20:25:50.731Z,81.90
2017-10-18T20:28:18.319Z,81.50
2017-10-18T20:30:45.850Z,81.90
2017-10-18T20:33:25.440Z,81.90
2017-10-18T20:39:26.571Z,81.70
2017-10-18T20:41:54.151Z,81.50
2017-10-18T20:44:21.723Z,81.60
2017-10-18T20:46:49.355Z,82.20
2017-10-18T20:49:16.959Z,82.70
2017-10-18T20:51:44.500Z,82.10
2017-10-18T20:54:12.063Z,81.90
2017-10-18T20:56:39.655Z,82.50
2017-10-18T20:59:07.979Z,83.20
2017-10-18T21:01:35.640Z,83.20
2017-10-18T21:04:03.720Z,83.10
2017-10-18T21:06:31.267Z,82.40
2017-10-18T21:08:59.134Z,82.80
2017-10-18T21:11:26.671Z,83.40
2017-10-18T21:13:55.036Z,82.10
2017-10-18T21:16:22.611Z,82.10
2017-10-18T21:18:50.163Z,82.30
2017-10-18T21:21:18.516Z,83.10
2017-10-18T21:23:46.084Z,83.80
2017-10-18T21:26:15.441Z,83.10
2017-10-18T21:28:42.992Z,83.10
2017-10-18T21:31:10.613Z,83.30
2017-10-18T21:33:38.156Z,83.40
2017-10-18T21:36:05.695Z,83.30
2017-10-18T21:38:33.299Z,83.30
2017-10-18T21:41:00.875Z,84.00
2017-10-18T21:43:28.472Z,83.70
2017-10-18T21:45:56.046Z,83.50
2017-10-18T21:48:23.659Z,83.30
2017-10-18T21:50:51.203Z,83.30
2017-10-18T21:53:19.571Z,83.00
2017-10-18T21:55:47.339Z,83.00
2017-10-18T21:58:15.536Z,83.00
2017-10-18T22:00:43.098Z,83.90
2017-10-18T22:03:10.745Z,83.10
2017-10-18T22:05:39.545Z,83.00
2017-10-18T22:08:07.979Z,82.90
2017-10-18T22:10:35.523Z,82.90
2017-10-18T22:13:03.062Z,82.40
2017-10-18T22:15:30.707Z,82.40
2017-10-18T22:17:59.101Z,82.50
2017-10-18T22:20:26.699Z,82.50
2017-10-18T22:22:54.282Z,82.90
2017-10-18T22:25:21.810Z,83.20
2017-10-18T22:27:49.348Z,83.10
2017-10-18T22:30:16.999Z,82.90
2017-10-18T22:32:44.611Z,82.90
2017-10-18T22:35:12.148Z,82.80
2017-10-18T22:37:39.791Z,82.70
2017-10-18T22:40:07.362Z,82.90
2017-10-18T22:42:34.991Z,83.00
2017-10-18T22:45:03.372Z,83.50
2017-10-18T22:47:30.935Z,83.60
2017-10-18T22:49:58.476Z,83.90
2017-10-18T22:52:26.807Z,84.10
2017-10-18T22:54:54.347Z,84.10
2017-10-18T22:57:21.887Z,84.60
2017-10-18T22:59:49.488Z,83.70
2017-10-18T23:02:17.018Z,84.40
2017-10-18T23:04:44.552Z,84.40
2017-10-18T23:07:12.255Z,84.70
2017-10-18T23:09:39.808Z,84.90
2017-10-18T23:12:07.660Z,84.80
2017-10-18T23:14:35.217Z,84.40
2017-10-18T23:17:02.752Z,84.10
2017-10-18T23:19:30.370Z,84.10
2017-10-18T23:21:58.011Z,84.50
2017-10-18T23:24:25.596Z,84.10
2017-10-18T23:26:53.140Z,84.00
2017-10-18T23:29:20.715Z,83.80
2017-10-18T23:31:48.248Z,84.20
2017-10-18T23:34:16.488Z,83.70
2017-10-18T23:36:44.132Z,83.40
2017-10-18T23:39:11.753Z,83.60
2017-10-18T23:41:39.290Z,84.00
2017-10-18T23:44:07.795Z,84.50
2017-10-18T23:46:35.332Z,84.50
2017-10-18T23:49:03.672Z,84.40
2017-10-18T23:51:31.252Z,84.40
2017-10-18T23:53:58.787Z,84.40
2017-10-18T23:56:26.324Z,84.60
2017-10-18T23:58:53.879Z,85.00
